sensor_id;sensor_type;location;lat;lon;timestamp;P1;durP1;ratioP1;P2;durP2;ratioP2
49310;SDS011;35177;45.900;5.946;2023-12-22T00:00:09;17.52;;;11.98;;
49310;SDS011;35177;45.900;5.946;2023-12-22T00:02:34;16.38;;;12.43;;
49310;SDS011;35177;45.900;5.946;2023-12-22T00:05:00;14.45;;;10.52;;
49310;SDS011;35177;45.900;5.946;2023-12-22T00:07:25;14.27;;;10.23;;
49310;SDS011;35177;45.900;5.946;2023-12-22T00:09:51;16.52;;;11.23;;
49310;SDS011;35177;45.900;5.946;2023-12-22T00:12:17;15.43;;;10.45;;
49310;SDS011;35177;45.900;5.946;2023-12-22T00:14:42;11.07;;;7.30;;
49310;SDS011;35177;45.900;5.946;2023-12-22T00:17:07;16.95;;;9.23;;
49310;SDS011;35177;45.900;5.946;2023-12-22T00:19:33;15.25;;;8.93;;
49310;SDS011;35177;45.900;5.946;2023-12-22T00:21:58;8.70;;;4.50;;
49310;SDS011;35177;45.900;5.946;2023-12-22T00:24:24;6.90;;;4.00;;
49310;SDS011;35177;45.900;5.946;2023-12-22T00:26:50;5.60;;;4.28;;
49310;SDS011;35177;45.900;5.946;2023-12-22T00:29:15;5.95;;;2.90;;
49310;SDS011;35177;45.900;5.946;2023-12-22T00:31:40;8.20;;;3.30;;
49310;SDS011;35177;45.900;5.946;2023-12-22T00:34:06;4.93;;;2.35;;
49310;SDS011;35177;45.900;5.946;2023-12-22T00:36:31;2.38;;;2.00;;
49310;SDS011;35177;45.900;5.946;2023-12-22T00:38:57;3.78;;;2.03;;
49310;SDS011;35177;45.900;5.946;2023-12-22T00:41:22;4.15;;;2.00;;
49310;SDS011;35177;45.900;5.946;2023-12-22T00:43:47;6.15;;;1.70;;
49310;SDS011;35177;45.900;5.946;2023-12-22T00:46:13;3.55;;;1.95;;
49310;SDS011;35177;45.900;5.946;2023-12-22T00:48:39;3.47;;;1.38;;
49310;SDS011;35177;45.900;5.946;2023-12-22T00:51:05;3.20;;;1.25;;
49310;SDS011;35177;45.900;5.946;2023-12-22T00:53:32;1.63;;;1.27;;
49310;SDS011;35177;45.900;5.946;2023-12-22T00:55:57;4.10;;;1.65;;
49310;SDS011;35177;45.900;5.946;2023-12-22T00:58:24;2.65;;;1.38;;
49310;SDS011;35177;45.900;5.946;2023-12-22T01:00:50;2.63;;;1.52;;
49310;SDS011;35177;45.900;5.946;2023-12-22T01:03:15;3.70;;;1.40;;
49310;SDS011;35177;45.900;5.946;2023-12-22T01:05:41;1.40;;;1.30;;
49310;SDS011;35177;45.900;5.946;2023-12-22T01:08:06;3.20;;;1.10;;
49310;SDS011;35177;45.900;5.946;2023-12-22T01:10:32;2.33;;;1.55;;
49310;SDS011;35177;45.900;5.946;2023-12-22T01:12:57;2.67;;;1.40;;
49310;SDS011;35177;45.900;5.946;2023-12-22T01:15:23;3.75;;;1.45;;
49310;SDS011;35177;45.900;5.946;2023-12-22T01:17:48;4.40;;;1.30;;
49310;SDS011;35177;45.900;5.946;2023-12-22T01:20:14;3.30;;;1.60;;
49310;SDS011;35177;45.900;5.946;2023-12-22T01:22:39;1.50;;;1.30;;
49310;SDS011;35177;45.900;5.946;2023-12-22T01:25:05;5.07;;;1.52;;
49310;SDS011;35177;45.900;5.946;2023-12-22T01:27:30;2.22;;;1.45;;
49310;SDS011;35177;45.900;5.946;2023-12-22T01:29:56;5.22;;;1.67;;
49310;SDS011;35177;45.900;5.946;2023-12-22T01:32:22;3.72;;;1.73;;
49310;SDS011;35177;45.900;5.946;2023-12-22T01:34:47;3.10;;;1.48;;
49310;SDS011;35177;45.900;5.946;2023-12-22T01:37:13;3.33;;;1.75;;
49310;SDS011;35177;45.900;5.946;2023-12-22T01:39:39;4.10;;;1.60;;
49310;SDS011;35177;45.900;5.946;2023-12-22T01:42:04;3.30;;;1.48;;
49310;SDS011;35177;45.900;5.946;2023-12-22T01:44:30;5.28;;;1.90;;
49310;SDS011;35177;45.900;5.946;2023-12-22T01:46:55;1.85;;;1.15;;
49310;SDS011;35177;45.900;5.946;2023-12-22T01:49:21;3.67;;;2.17;;
49310;SDS011;35177;45.900;5.946;2023-12-22T01:51:47;5.30;;;1.38;;
49310;SDS011;35177;45.900;5.946;2023-12-22T01:54:14;3.40;;;1.58;;
49310;SDS011;35177;45.900;5.946;2023-12-22T01:56:44;3.40;;;1.33;;
49310;SDS011;35177;45.900;5.946;2023-12-22T01:59:10;3.20;;;1.40;;
49310;SDS011;35177;45.900;5.946;2023-12-22T02:01:36;6.47;;;1.67;;
49310;SDS011;35177;45.900;5.946;2023-12-22T02:04:02;3.55;;;1.42;;
49310;SDS011;35177;45.900;5.946;2023-12-22T02:06:29;3.30;;;1.50;;
49310;SDS011;35177;45.900;5.946;2023-12-22T02:08:55;4.68;;;1.77;;
49310;SDS011;35177;45.900;5.946;2023-12-22T02:11:22;5.43;;;1.65;;
49310;SDS011;35177;45.900;5.946;2023-12-22T02:13:48;2.90;;;1.63;;
49310;SDS011;35177;45.900;5.946;2023-12-22T02:16:30;4.45;;;1.75;;
49310;SDS011;35177;45.900;5.946;2023-12-22T02:18:57;2.60;;;1.75;;
49310;SDS011;35177;45.900;5.946;2023-12-22T02:21:29;3.30;;;1.67;;
49310;SDS011;35177;45.900;5.946;2023-12-22T02:23:54;4.20;;;1.48;;
49310;SDS011;35177;45.900;5.946;2023-12-22T02:26:32;3.97;;;1.40;;
49310;SDS011;35177;45.900;5.946;2023-12-22T02:29:03;3.05;;;1.20;;
49310;SDS011;35177;45.900;5.946;2023-12-22T02:31:36;4.30;;;1.67;;
49310;SDS011;35177;45.900;5.946;2023-12-22T02:34:04;1.13;;;1.00;;
49310;SDS011;35177;45.900;5.946;2023-12-22T02:36:36;3.45;;;1.40;;
49310;SDS011;35177;45.900;5.946;2023-12-22T02:39:03;5.25;;;1.50;;
49310;SDS011;35177;45.900;5.946;2023-12-22T02:41:31;4.68;;;1.67;;
49310;SDS011;35177;45.900;5.946;2023-12-22T02:43:56;2.00;;;1.35;;
49310;SDS011;35177;45.900;5.946;2023-12-22T02:46:22;1.58;;;1.17;;
49310;SDS011;35177;45.900;5.946;2023-12-22T02:48:48;3.10;;;1.70;;
49310;SDS011;35177;45.900;5.946;2023-12-22T02:51:13;3.08;;;1.20;;
49310;SDS011;35177;45.900;5.946;2023-12-22T02:53:38;5.70;;;1.48;;
49310;SDS011;35177;45.900;5.946;2023-12-22T02:56:04;4.47;;;1.55;;
49310;SDS011;35177;45.900;5.946;2023-12-22T02:58:30;3.30;;;1.33;;
49310;SDS011;35177;45.900;5.946;2023-12-22T03:00:55;4.68;;;1.70;;
49310;SDS011;35177;45.900;5.946;2023-12-22T03:03:20;1.75;;;1.48;;
49310;SDS011;35177;45.900;5.946;2023-12-22T03:05:46;2.05;;;1.38;;
49310;SDS011;35177;45.900;5.946;2023-12-22T03:08:11;4.05;;;1.67;;
49310;SDS011;35177;45.900;5.946;2023-12-22T03:10:37;3.13;;;1.33;;
49310;SDS011;35177;45.900;5.946;2023-12-22T03:13:02;2.47;;;1.20;;
49310;SDS011;35177;45.900;5.946;2023-12-22T03:15:28;1.15;;;1.05;;
49310;SDS011;35177;45.900;5.946;2023-12-22T03:17:53;3.58;;;1.23;;
49310;SDS011;35177;45.900;5.946;2023-12-22T03:20:18;2.15;;;0.98;;
49310;SDS011;35177;45.900;5.946;2023-12-22T03:22:44;1.52;;;1.20;;
49310;SDS011;35177;45.900;5.946;2023-12-22T03:25:09;3.30;;;1.67;;
49310;SDS011;35177;45.900;5.946;2023-12-22T03:27:35;1.73;;;1.35;;
49310;SDS011;35177;45.900;5.946;2023-12-22T03:30:00;2.75;;;1.35;;
49310;SDS011;35177;45.900;5.946;2023-12-22T03:32:26;1.60;;;1.20;;
49310;SDS011;35177;45.900;5.946;2023-12-22T03:34:52;3.40;;;1.50;;
49310;SDS011;35177;45.900;5.946;2023-12-22T03:37:17;1.45;;;1.23;;
49310;SDS011;35177;45.900;5.946;2023-12-22T03:39:43;1.92;;;1.23;;
49310;SDS011;35177;45.900;5.946;2023-12-22T03:42:08;2.42;;;1.33;;
49310;SDS011;35177;45.900;5.946;2023-12-22T03:44:33;4.70;;;1.40;;
49310;SDS011;35177;45.900;5.946;2023-12-22T03:46:59;3.97;;;1.40;;
49310;SDS011;35177;45.900;5.946;2023-12-22T03:49:24;6.38;;;1.73;;
49310;SDS011;35177;45.900;5.946;2023-12-22T03:51:50;4.10;;;1.17;;
49310;SDS011;35177;45.900;5.946;2023-12-22T03:54:15;1.75;;;1.00;;
49310;SDS011;35177;45.900;5.946;2023-12-22T03:56:42;2.85;;;1.20;;
49310;SDS011;35177;45.900;5.946;2023-12-22T03:59:07;2.55;;;0.95;;
49310;SDS011;35177;45.900;5.946;2023-12-22T04:01:33;3.33;;;0.80;;
49310;SDS011;35177;45.900;5.946;2023-12-22T04:03:59;1.75;;;0.70;;
49310;SDS011;35177;45.900;5.946;2023-12-22T04:06:24;2.25;;;1.05;;
49310;SDS011;35177;45.900;5.946;2023-12-22T04:08:50;1.63;;;0.65;;
49310;SDS011;35177;45.900;5.946;2023-12-22T04:11:15;1.33;;;0.70;;
49310;SDS011;35177;45.900;5.946;2023-12-22T04:13:41;2.50;;;0.70;;
49310;SDS011;35177;45.900;5.946;2023-12-22T04:16:06;0.82;;;0.60;;
49310;SDS011;35177;45.900;5.946;2023-12-22T04:18:31;0.88;;;0.60;;
49310;SDS011;35177;45.900;5.946;2023-12-22T04:20:57;1.98;;;0.60;;
49310;SDS011;35177;45.900;5.946;2023-12-22T04:23:22;1.10;;;0.50;;
49310;SDS011;35177;45.900;5.946;2023-12-22T04:25:48;2.55;;;0.70;;
49310;SDS011;35177;45.900;5.946;2023-12-22T04:28:13;1.70;;;0.57;;
49310;SDS011;35177;45.900;5.946;2023-12-22T04:30:39;1.70;;;0.80;;
49310;SDS011;35177;45.900;5.946;2023-12-22T04:33:04;1.95;;;0.70;;
49310;SDS011;35177;45.900;5.946;2023-12-22T04:35:30;1.65;;;0.82;;
49310;SDS011;35177;45.900;5.946;2023-12-22T04:37:55;1.40;;;0.50;;
49310;SDS011;35177;45.900;5.946;2023-12-22T04:40:21;1.38;;;0.70;;
49310;SDS011;35177;45.900;5.946;2023-12-22T04:42:46;0.65;;;0.60;;
49310;SDS011;35177;45.900;5.946;2023-12-22T04:45:12;9.65;;;4.88;;
49310;SDS011;35177;45.900;5.946;2023-12-22T04:47:37;10.77;;;5.03;;
49310;SDS011;35177;45.900;5.946;2023-12-22T04:50:03;9.52;;;4.75;;
49310;SDS011;35177;45.900;5.946;2023-12-22T04:52:29;3.08;;;1.45;;
49310;SDS011;35177;45.900;5.946;2023-12-22T04:54:54;2.85;;;0.98;;
49310;SDS011;35177;45.900;5.946;2023-12-22T04:57:19;2.17;;;1.15;;
49310;SDS011;35177;45.900;5.946;2023-12-22T04:59:47;1.88;;;1.08;;
49310;SDS011;35177;45.900;5.946;2023-12-22T05:02:12;2.00;;;0.90;;
49310;SDS011;35177;45.900;5.946;2023-12-22T05:04:37;3.33;;;1.00;;
49310;SDS011;35177;45.900;5.946;2023-12-22T05:07:03;1.65;;;0.98;;
49310;SDS011;35177;45.900;5.946;2023-12-22T05:09:32;2.00;;;1.02;;
49310;SDS011;35177;45.900;5.946;2023-12-22T05:11:58;3.63;;;1.10;;
49310;SDS011;35177;45.900;5.946;2023-12-22T05:14:24;4.55;;;0.90;;
49310;SDS011;35177;45.900;5.946;2023-12-22T05:16:49;2.78;;;1.30;;
49310;SDS011;35177;45.900;5.946;2023-12-22T05:19:15;2.55;;;1.00;;
49310;SDS011;35177;45.900;5.946;2023-12-22T05:21:41;3.28;;;0.90;;
49310;SDS011;35177;45.900;5.946;2023-12-22T05:24:06;3.95;;;0.98;;
49310;SDS011;35177;45.900;5.946;2023-12-22T05:26:32;1.65;;;0.90;;
49310;SDS011;35177;45.900;5.946;2023-12-22T05:28:57;0.80;;;0.80;;
49310;SDS011;35177;45.900;5.946;2023-12-22T05:31:23;2.97;;;1.15;;
49310;SDS011;35177;45.900;5.946;2023-12-22T05:33:48;1.25;;;0.80;;
49310;SDS011;35177;45.900;5.946;2023-12-22T05:36:13;1.48;;;0.75;;
49310;SDS011;35177;45.900;5.946;2023-12-22T05:38:39;11.52;;;10.13;;
49310;SDS011;35177;45.900;5.946;2023-12-22T05:41:05;1.80;;;0.93;;
49310;SDS011;35177;45.900;5.946;2023-12-22T05:43:33;3.90;;;0.95;;
49310;SDS011;35177;45.900;5.946;2023-12-22T05:45:59;1.23;;;0.73;;
49310;SDS011;35177;45.900;5.946;2023-12-22T05:48:25;1.00;;;0.70;;
49310;SDS011;35177;45.900;5.946;2023-12-22T05:50:52;1.45;;;0.88;;
49310;SDS011;35177;45.900;5.946;2023-12-22T05:53:18;1.08;;;0.50;;
49310;SDS011;35177;45.900;5.946;2023-12-22T05:55:44;3.55;;;0.70;;
49310;SDS011;35177;45.900;5.946;2023-12-22T05:58:09;1.88;;;0.60;;
49310;SDS011;35177;45.900;5.946;2023-12-22T06:00:35;1.65;;;0.70;;
49310;SDS011;35177;45.900;5.946;2023-12-22T06:03:00;2.17;;;0.70;;
49310;SDS011;35177;45.900;5.946;2023-12-22T06:05:26;2.65;;;0.90;;
49310;SDS011;35177;45.900;5.946;2023-12-22T06:07:52;2.70;;;0.80;;
49310;SDS011;35177;45.900;5.946;2023-12-22T06:10:17;4.03;;;0.70;;
49310;SDS011;35177;45.900;5.946;2023-12-22T06:12:42;2.78;;;1.23;;
49310;SDS011;35177;45.900;5.946;2023-12-22T06:15:08;3.45;;;1.45;;
49310;SDS011;35177;45.900;5.946;2023-12-22T06:17:34;1.73;;;1.10;;
49310;SDS011;35177;45.900;5.946;2023-12-22T06:19:59;4.10;;;1.15;;
49310;SDS011;35177;45.900;5.946;2023-12-22T06:22:24;2.70;;;0.93;;
49310;SDS011;35177;45.900;5.946;2023-12-22T06:24:50;2.05;;;0.93;;
49310;SDS011;35177;45.900;5.946;2023-12-22T06:27:15;2.45;;;1.00;;
49310;SDS011;35177;45.900;5.946;2023-12-22T06:29:41;1.42;;;0.85;;
49310;SDS011;35177;45.900;5.946;2023-12-22T06:32:07;1.13;;;0.88;;
49310;SDS011;35177;45.900;5.946;2023-12-22T06:34:32;9.43;;;1.08;;
49310;SDS011;35177;45.900;5.946;2023-12-22T06:36:58;1.17;;;0.68;;
49310;SDS011;35177;45.900;5.946;2023-12-22T06:39:23;2.72;;;1.48;;
49310;SDS011;35177;45.900;5.946;2023-12-22T06:41:49;4.18;;;0.80;;
49310;SDS011;35177;45.900;5.946;2023-12-22T06:44:15;2.45;;;0.90;;
49310;SDS011;35177;45.900;5.946;2023-12-22T06:46:40;2.08;;;0.82;;
49310;SDS011;35177;45.900;5.946;2023-12-22T06:49:06;3.65;;;0.80;;
49310;SDS011;35177;45.900;5.946;2023-12-22T06:51:31;4.30;;;0.88;;
49310;SDS011;35177;45.900;5.946;2023-12-22T06:54:00;2.90;;;1.05;;
49310;SDS011;35177;45.900;5.946;2023-12-22T06:56:27;2.60;;;1.00;;
49310;SDS011;35177;45.900;5.946;2023-12-22T06:58:55;5.57;;;1.02;;
49310;SDS011;35177;45.900;5.946;2023-12-22T07:03:51;3.33;;;1.20;;
49310;SDS011;35177;45.900;5.946;2023-12-22T07:06:18;3.65;;;0.93;;
49310;SDS011;35177;45.900;5.946;2023-12-22T07:08:44;2.88;;;1.20;;
49310;SDS011;35177;45.900;5.946;2023-12-22T07:11:19;2.10;;;1.05;;
49310;SDS011;35177;45.900;5.946;2023-12-22T07:13:45;4.50;;;0.90;;
49310;SDS011;35177;45.900;5.946;2023-12-22T07:16:11;4.15;;;1.27;;
49310;SDS011;35177;45.900;5.946;2023-12-22T07:18:37;8.88;;;1.85;;
49310;SDS011;35177;45.900;5.946;2023-12-22T07:21:03;3.35;;;1.17;;
49310;SDS011;35177;45.900;5.946;2023-12-22T07:23:28;6.25;;;1.50;;
49310;SDS011;35177;45.900;5.946;2023-12-22T07:25:54;2.70;;;1.00;;
49310;SDS011;35177;45.900;5.946;2023-12-22T07:28:19;5.82;;;1.42;;
49310;SDS011;35177;45.900;5.946;2023-12-22T07:30:45;3.72;;;1.33;;
49310;SDS011;35177;45.900;5.946;2023-12-22T07:33:10;3.15;;;1.42;;
49310;SDS011;35177;45.900;5.946;2023-12-22T07:35:35;6.45;;;1.40;;
49310;SDS011;35177;45.900;5.946;2023-12-22T07:38:01;6.60;;;2.00;;
49310;SDS011;35177;45.900;5.946;2023-12-22T07:40:29;7.00;;;1.67;;
49310;SDS011;35177;45.900;5.946;2023-12-22T07:42:58;4.22;;;1.90;;
49310;SDS011;35177;45.900;5.946;2023-12-22T07:45:23;6.00;;;1.80;;
49310;SDS011;35177;45.900;5.946;2023-12-22T07:47:49;6.85;;;1.95;;
49310;SDS011;35177;45.900;5.946;2023-12-22T07:50:14;8.30;;;1.88;;
49310;SDS011;35177;45.900;5.946;2023-12-22T07:52:40;4.60;;;1.75;;
49310;SDS011;35177;45.900;5.946;2023-12-22T07:55:06;3.92;;;1.55;;
49310;SDS011;35177;45.900;5.946;2023-12-22T07:57:34;9.02;;;2.13;;
49310;SDS011;35177;45.900;5.946;2023-12-22T07:59:59;10.38;;;2.50;;
49310;SDS011;35177;45.900;5.946;2023-12-22T08:02:25;9.75;;;3.03;;
49310;SDS011;35177;45.900;5.946;2023-12-22T08:04:50;9.70;;;3.15;;
49310;SDS011;35177;45.900;5.946;2023-12-22T08:07:16;9.38;;;3.60;;
49310;SDS011;35177;45.900;5.946;2023-12-22T08:09:41;9.50;;;3.10;;
49310;SDS011;35177;45.900;5.946;2023-12-22T08:12:07;9.18;;;2.75;;
49310;SDS011;35177;45.900;5.946;2023-12-22T08:14:32;7.10;;;2.00;;
49310;SDS011;35177;45.900;5.946;2023-12-22T08:16:58;4.80;;;1.55;;
49310;SDS011;35177;45.900;5.946;2023-12-22T08:19:23;6.72;;;1.70;;
49310;SDS011;35177;45.900;5.946;2023-12-22T08:21:51;7.72;;;1.98;;
49310;SDS011;35177;45.900;5.946;2023-12-22T08:24:18;4.32;;;1.75;;
49310;SDS011;35177;45.900;5.946;2023-12-22T08:26:43;8.10;;;2.42;;
49310;SDS011;35177;45.900;5.946;2023-12-22T08:29:09;7.35;;;2.35;;
49310;SDS011;35177;45.900;5.946;2023-12-22T08:31:34;6.55;;;1.95;;
49310;SDS011;35177;45.900;5.946;2023-12-22T08:34:00;6.30;;;1.70;;
49310;SDS011;35177;45.900;5.946;2023-12-22T08:36:25;5.80;;;1.17;;
49310;SDS011;35177;45.900;5.946;2023-12-22T08:38:50;4.80;;;1.45;;
49310;SDS011;35177;45.900;5.946;2023-12-22T08:41:16;4.68;;;1.23;;
49310;SDS011;35177;45.900;5.946;2023-12-22T08:43:41;3.22;;;1.38;;
49310;SDS011;35177;45.900;5.946;2023-12-22T08:46:07;3.35;;;1.58;;
49310;SDS011;35177;45.900;5.946;2023-12-22T08:48:34;9.23;;;4.03;;
49310;SDS011;35177;45.900;5.946;2023-12-22T08:51:00;9.80;;;2.50;;
49310;SDS011;35177;45.900;5.946;2023-12-22T08:53:26;4.35;;;1.40;;
49310;SDS011;35177;45.900;5.946;2023-12-22T08:55:55;3.70;;;1.80;;
49310;SDS011;35177;45.900;5.946;2023-12-22T08:58:21;3.15;;;1.27;;
49310;SDS011;35177;45.900;5.946;2023-12-22T09:00:47;2.03;;;1.15;;
49310;SDS011;35177;45.900;5.946;2023-12-22T09:03:12;5.05;;;1.38;;
49310;SDS011;35177;45.900;5.946;2023-12-22T09:05:38;2.20;;;1.15;;
49310;SDS011;35177;45.900;5.946;2023-12-22T09:08:04;7.53;;;1.65;;
49310;SDS011;35177;45.900;5.946;2023-12-22T09:10:31;6.47;;;1.50;;
49310;SDS011;35177;45.900;5.946;2023-12-22T09:12:57;2.85;;;1.30;;
49310;SDS011;35177;45.900;5.946;2023-12-22T09:15:23;5.28;;;1.50;;
49310;SDS011;35177;45.900;5.946;2023-12-22T09:17:48;5.55;;;1.75;;
49310;SDS011;35177;45.900;5.946;2023-12-22T09:20:14;2.25;;;1.33;;
49310;SDS011;35177;45.900;5.946;2023-12-22T09:22:40;5.15;;;1.70;;
49310;SDS011;35177;45.900;5.946;2023-12-22T09:25:05;3.60;;;1.48;;
49310;SDS011;35177;45.900;5.946;2023-12-22T09:27:31;4.93;;;1.70;;
49310;SDS011;35177;45.900;5.946;2023-12-22T09:29:57;3.28;;;1.63;;
49310;SDS011;35177;45.900;5.946;2023-12-22T09:32:22;8.20;;;2.28;;
49310;SDS011;35177;45.900;5.946;2023-12-22T09:34:47;6.35;;;2.10;;
49310;SDS011;35177;45.900;5.946;2023-12-22T09:37:15;7.80;;;2.33;;
49310;SDS011;35177;45.900;5.946;2023-12-22T09:39:40;4.15;;;2.22;;
49310;SDS011;35177;45.900;5.946;2023-12-22T09:42:05;6.72;;;2.13;;
49310;SDS011;35177;45.900;5.946;2023-12-22T09:44:31;5.70;;;2.20;;
49310;SDS011;35177;45.900;5.946;2023-12-22T09:46:59;5.57;;;2.10;;
49310;SDS011;35177;45.900;5.946;2023-12-22T09:49:26;5.30;;;2.33;;
49310;SDS011;35177;45.900;5.946;2023-12-22T09:51:52;5.50;;;2.20;;
49310;SDS011;35177;45.900;5.946;2023-12-22T09:54:19;3.72;;;1.65;;
49310;SDS011;35177;45.900;5.946;2023-12-22T09:56:44;4.57;;;1.70;;
49310;SDS011;35177;45.900;5.946;2023-12-22T09:59:12;3.90;;;1.58;;
49310;SDS011;35177;45.900;5.946;2023-12-22T10:01:40;2.90;;;1.52;;
49310;SDS011;35177;45.900;5.946;2023-12-22T10:04:09;5.85;;;1.48;;
49310;SDS011;35177;45.900;5.946;2023-12-22T10:06:35;3.40;;;1.27;;
49310;SDS011;35177;45.900;5.946;2023-12-22T10:09:01;4.00;;;1.40;;
49310;SDS011;35177;45.900;5.946;2023-12-22T10:11:30;6.88;;;1.40;;
49310;SDS011;35177;45.900;5.946;2023-12-22T10:13:57;5.25;;;1.48;;
49310;SDS011;35177;45.900;5.946;2023-12-22T10:16:25;4.97;;;1.42;;
49310;SDS011;35177;45.900;5.946;2023-12-22T10:18:51;4.55;;;2.45;;
49310;SDS011;35177;45.900;5.946;2023-12-22T10:21:17;5.75;;;1.83;;
49310;SDS011;35177;45.900;5.946;2023-12-22T10:23:42;2.40;;;1.27;;
49310;SDS011;35177;45.900;5.946;2023-12-22T10:26:10;3.25;;;1.33;;
49310;SDS011;35177;45.900;5.946;2023-12-22T10:28:36;5.35;;;1.35;;
49310;SDS011;35177;45.900;5.946;2023-12-22T10:31:02;6.82;;;1.77;;
49310;SDS011;35177;45.900;5.946;2023-12-22T10:33:29;5.65;;;1.20;;
49310;SDS011;35177;45.900;5.946;2023-12-22T10:35:55;3.03;;;1.13;;
49310;SDS011;35177;45.900;5.946;2023-12-22T10:38:20;5.45;;;2.78;;
49310;SDS011;35177;45.900;5.946;2023-12-22T10:40:47;3.35;;;1.27;;
49310;SDS011;35177;45.900;5.946;2023-12-22T10:43:14;5.53;;;1.65;;
49310;SDS011;35177;45.900;5.946;2023-12-22T10:45:40;4.35;;;1.58;;
49310;SDS011;35177;45.900;5.946;2023-12-22T10:48:06;5.07;;;1.70;;
49310;SDS011;35177;45.900;5.946;2023-12-22T10:50:32;5.03;;;2.25;;
49310;SDS011;35177;45.900;5.946;2023-12-22T10:52:57;6.70;;;2.40;;
49310;SDS011;35177;45.900;5.946;2023-12-22T10:55:23;8.55;;;2.10;;
49310;SDS011;35177;45.900;5.946;2023-12-22T10:57:49;6.15;;;2.63;;
49310;SDS011;35177;45.900;5.946;2023-12-22T11:00:15;5.85;;;2.17;;
49310;SDS011;35177;45.900;5.946;2023-12-22T11:02:42;4.70;;;1.75;;
49310;SDS011;35177;45.900;5.946;2023-12-22T11:05:10;6.72;;;2.13;;
49310;SDS011;35177;45.900;5.946;2023-12-22T11:07:37;7.35;;;2.55;;
49310;SDS011;35177;45.900;5.946;2023-12-22T11:12:31;8.05;;;1.85;;
49310;SDS011;35177;45.900;5.946;2023-12-22T11:14:59;8.82;;;1.90;;
49310;SDS011;35177;45.900;5.946;2023-12-22T11:17:26;5.13;;;1.67;;
49310;SDS011;35177;45.900;5.946;2023-12-22T11:19:54;3.90;;;1.52;;
49310;SDS011;35177;45.900;5.946;2023-12-22T11:22:21;6.72;;;1.90;;
49310;SDS011;35177;45.900;5.946;2023-12-22T11:24:48;6.90;;;1.95;;
49310;SDS011;35177;45.900;5.946;2023-12-22T11:27:18;9.40;;;2.72;;
49310;SDS011;35177;45.900;5.946;2023-12-22T11:29:47;4.65;;;1.75;;
49310;SDS011;35177;45.900;5.946;2023-12-22T11:32:17;6.88;;;2.30;;
49310;SDS011;35177;45.900;5.946;2023-12-22T11:34:43;3.70;;;2.08;;
49310;SDS011;35177;45.900;5.946;2023-12-22T11:37:14;6.65;;;1.98;;
49310;SDS011;35177;45.900;5.946;2023-12-22T11:39:40;6.38;;;1.70;;
49310;SDS011;35177;45.900;5.946;2023-12-22T11:42:14;9.77;;;2.97;;
49310;SDS011;35177;45.900;5.946;2023-12-22T11:44:43;5.03;;;1.58;;
49310;SDS011;35177;45.900;5.946;2023-12-22T11:47:09;5.65;;;1.30;;
49310;SDS011;35177;45.900;5.946;2023-12-22T11:49:36;5.90;;;1.80;;
49310;SDS011;35177;45.900;5.946;2023-12-22T11:52:12;4.43;;;1.50;;
49310;SDS011;35177;45.900;5.946;2023-12-22T11:54:52;7.38;;;1.90;;
49310;SDS011;35177;45.900;5.946;2023-12-22T12:02:54;6.22;;;1.80;;
49310;SDS011;35177;45.900;5.946;2023-12-22T12:05:20;12.27;;;2.00;;
49310;SDS011;35177;45.900;5.946;2023-12-22T12:07:46;4.65;;;1.58;;
49310;SDS011;35177;45.900;5.946;2023-12-22T12:10:59;5.35;;;1.38;;
49310;SDS011;35177;45.900;5.946;2023-12-22T12:13:12;4.10;;;1.30;;
49310;SDS011;35177;45.900;5.946;2023-12-22T12:15:41;6.05;;;1.60;;
49310;SDS011;35177;45.900;5.946;2023-12-22T12:18:07;5.13;;;1.60;;
49310;SDS011;35177;45.900;5.946;2023-12-22T12:20:34;4.47;;;1.40;;
49310;SDS011;35177;45.900;5.946;2023-12-22T12:23:03;5.53;;;1.60;;
49310;SDS011;35177;45.900;5.946;2023-12-22T12:25:30;3.15;;;1.30;;
49310;SDS011;35177;45.900;5.946;2023-12-22T12:28:01;5.45;;;1.85;;
49310;SDS011;35177;45.900;5.946;2023-12-22T12:30:28;5.53;;;1.35;;
49310;SDS011;35177;45.900;5.946;2023-12-22T12:32:58;7.20;;;2.03;;
49310;SDS011;35177;45.900;5.946;2023-12-22T12:35:27;3.88;;;1.55;;
49310;SDS011;35177;45.900;5.946;2023-12-22T12:37:54;10.48;;;1.92;;
49310;SDS011;35177;45.900;5.946;2023-12-22T12:40:20;7.82;;;1.30;;
49310;SDS011;35177;45.900;5.946;2023-12-22T12:42:49;7.28;;;1.25;;
49310;SDS011;35177;45.900;5.946;2023-12-22T12:45:15;4.28;;;1.40;;
49310;SDS011;35177;45.900;5.946;2023-12-22T12:48:20;7.63;;;1.88;;
49310;SDS011;35177;45.900;5.946;2023-12-22T12:50:41;5.40;;;1.48;;
49310;SDS011;35177;45.900;5.946;2023-12-22T12:53:06;3.70;;;1.52;;
49310;SDS011;35177;45.900;5.946;2023-12-22T12:55:32;4.55;;;1.48;;
49310;SDS011;35177;45.900;5.946;2023-12-22T12:57:57;2.90;;;1.20;;
49310;SDS011;35177;45.900;5.946;2023-12-22T13:02:48;6.40;;;1.52;;
49310;SDS011;35177;45.900;5.946;2023-12-22T13:05:23;5.70;;;1.25;;
49310;SDS011;35177;45.900;5.946;2023-12-22T13:07:49;5.85;;;1.42;;
49310;SDS011;35177;45.900;5.946;2023-12-22T13:10:24;3.45;;;1.30;;
49310;SDS011;35177;45.900;5.946;2023-12-22T13:12:51;4.47;;;1.58;;
49310;SDS011;35177;45.900;5.946;2023-12-22T13:15:22;4.95;;;1.10;;
49310;SDS011;35177;45.900;5.946;2023-12-22T13:17:47;4.80;;;1.58;;
49310;SDS011;35177;45.900;5.946;2023-12-22T13:20:13;6.28;;;1.80;;
49310;SDS011;35177;45.900;5.946;2023-12-22T13:22:39;6.88;;;1.95;;
49310;SDS011;35177;45.900;5.946;2023-12-22T13:25:05;4.45;;;1.70;;
49310;SDS011;35177;45.900;5.946;2023-12-22T13:27:31;7.13;;;2.38;;
49310;SDS011;35177;45.900;5.946;2023-12-22T13:29:56;7.80;;;2.13;;
49310;SDS011;35177;45.900;5.946;2023-12-22T13:32:22;5.20;;;1.60;;
49310;SDS011;35177;45.900;5.946;2023-12-22T13:34:54;2.53;;;1.30;;
49310;SDS011;35177;45.900;5.946;2023-12-22T13:37:21;5.80;;;1.80;;
49310;SDS011;35177;45.900;5.946;2023-12-22T13:39:52;2.60;;;1.13;;
49310;SDS011;35177;45.900;5.946;2023-12-22T13:42:18;4.75;;;1.60;;
49310;SDS011;35177;45.900;5.946;2023-12-22T13:44:45;7.80;;;1.70;;
49310;SDS011;35177;45.900;5.946;2023-12-22T13:47:16;2.75;;;1.40;;
49310;SDS011;35177;45.900;5.946;2023-12-22T13:49:42;9.27;;;1.95;;
49310;SDS011;35177;45.900;5.946;2023-12-22T13:52:23;5.63;;;1.60;;
49310;SDS011;35177;45.900;5.946;2023-12-22T13:54:50;3.72;;;1.90;;
49310;SDS011;35177;45.900;5.946;2023-12-22T13:57:19;4.13;;;1.30;;
49310;SDS011;35177;45.900;5.946;2023-12-22T13:59:46;3.80;;;1.25;;
49310;SDS011;35177;45.900;5.946;2023-12-22T14:02:12;3.15;;;1.10;;
49310;SDS011;35177;45.900;5.946;2023-12-22T14:04:37;4.95;;;1.08;;
49310;SDS011;35177;45.900;5.946;2023-12-22T14:07:03;4.85;;;1.20;;
49310;SDS011;35177;45.900;5.946;2023-12-22T14:09:28;2.95;;;1.10;;
49310;SDS011;35177;45.900;5.946;2023-12-22T14:11:57;2.50;;;1.15;;
49310;SDS011;35177;45.900;5.946;2023-12-22T14:14:23;2.83;;;1.20;;
49310;SDS011;35177;45.900;5.946;2023-12-22T14:16:48;2.60;;;1.27;;
49310;SDS011;35177;45.900;5.946;2023-12-22T14:19:14;4.07;;;1.48;;
49310;SDS011;35177;45.900;5.946;2023-12-22T14:21:39;2.00;;;1.23;;
49310;SDS011;35177;45.900;5.946;2023-12-22T14:24:04;4.15;;;1.45;;
49310;SDS011;35177;45.900;5.946;2023-12-22T14:26:30;3.80;;;1.38;;
49310;SDS011;35177;45.900;5.946;2023-12-22T14:28:56;4.13;;;1.45;;
49310;SDS011;35177;45.900;5.946;2023-12-22T14:31:22;3.85;;;1.58;;
49310;SDS011;35177;45.900;5.946;2023-12-22T14:33:47;3.30;;;1.50;;
49310;SDS011;35177;45.900;5.946;2023-12-22T14:36:12;2.88;;;1.45;;
49310;SDS011;35177;45.900;5.946;2023-12-22T14:38:38;2.63;;;1.58;;
49310;SDS011;35177;45.900;5.946;2023-12-22T14:41:03;5.03;;;1.67;;
49310;SDS011;35177;45.900;5.946;2023-12-22T14:43:29;3.95;;;1.65;;
49310;SDS011;35177;45.900;5.946;2023-12-22T14:45:54;3.78;;;1.60;;
49310;SDS011;35177;45.900;5.946;2023-12-22T14:48:20;1.85;;;1.35;;
49310;SDS011;35177;45.900;5.946;2023-12-22T14:50:45;3.47;;;1.50;;
49310;SDS011;35177;45.900;5.946;2023-12-22T14:53:11;3.65;;;1.55;;
49310;SDS011;35177;45.900;5.946;2023-12-22T14:55:36;1.70;;;1.05;;